Time;durP1;ratioP1;P1;durP2;ratioP2;P2;SDS_P1;SDS_P2;PMS_P1;PMS_P2;Temp;Humidity;BMP_temperature;BMP_pressure;BME280_temperature;BME280_humidity;BME280_pressure;Samples;Min_cycle;Max_cycle;Signal;HPM_P1;HPM_P2
2023/01/24 00:01:29;;;;;;;16.80;7.65;;;;;;;3.05;70.74;98683.88;4929314;28;20236;-75
2023/01/24 00:03:54;;;;;;;16.65;8.07;;;;;;;2.97;70.98;98679.50;4924933;28;20636;-75
2023/01/24 00:06:20;;;;;;;16.92;8.35;;;;;;;2.95;71.50;98686.56;4916123;28;20499;-75
2023/01/24 00:08:45;;;;;;;16.25;8.32;;;;;;;2.79;71.69;98682.19;4924803;28;20238;-75
2023/01/24 00:11:12;;;;;;;17.50;8.88;;;;;;;2.78;72.02;98688.28;4940559;28;20270;-75
2023/01/24 00:13:37;;;;;;;16.17;7.78;;;;;;;3.26;70.03;98680.03;4928658;28;20195;-75
2023/01/24 00:16:15;;;;;;;17.83;8.23;;;;;;;3.28;69.96;98680.66;4943096;28;20393;-75
2023/01/24 00:18:41;;;;;;;14.75;8.18;;;;;;;3.14;69.99;98682.91;4933635;28;20778;-75
2023/01/24 00:21:16;;;;;;;17.88;8.68;;;;;;;3.74;68.79;98688.72;4945629;28;20188;-77
2023/01/24 00:23:42;;;;;;;14.68;7.10;;;;;;;3.56;69.01;98694.00;4943265;28;20269;-75
2023/01/24 00:26:08;;;;;;;19.73;8.27;;;;;;;3.23;69.44;98685.50;4945214;28;20723;-76
2023/01/24 00:28:34;;;;;;;18.00;8.55;;;;;;;3.42;69.42;98689.53;4945060;28;20250;-75
2023/01/24 00:31:00;;;;;;;16.75;7.07;;;;;;;3.48;69.58;98692.25;4946585;28;20187;-76
2023/01/24 00:33:25;;;;;;;19.15;8.90;;;;;;;3.23;69.63;98675.19;4944392;28;20177;-76
2023/01/24 00:35:51;;;;;;;15.95;7.15;;;;;;;3.04;70.30;98669.38;4942886;28;20294;-75
2023/01/24 00:38:17;;;;;;;17.88;7.60;;;;;;;3.23;70.08;98668.25;4930445;28;20622;-75
2023/01/24 00:40:42;;;;;;;17.65;8.60;;;;;;;2.97;71.33;98671.78;4928246;28;20239;-75
2023/01/24 00:43:08;;;;;;;15.95;7.88;;;;;;;2.88;71.37;98671.91;4921288;28;20606;-75
2023/01/24 00:45:36;;;;;;;17.27;7.13;;;;;;;3.11;70.33;98672.91;4945676;28;20203;-75
2023/01/24 00:48:01;;;;;;;15.05;7.88;;;;;;;3.13;70.96;98665.03;4943427;28;20243;-76
2023/01/24 00:50:27;;;;;;;16.13;6.88;;;;;;;3.13;70.15;98667.63;4935026;28;20141;-76
2023/01/24 00:52:52;;;;;;;14.57;7.28;;;;;;;2.97;71.48;98661.47;4921413;28;20154;-75
2023/01/24 00:55:17;;;;;;;14.13;7.50;;;;;;;3.17;70.26;98659.44;4943875;28;20215;-75
2023/01/24 00:57:43;;;;;;;16.20;7.82;;;;;;;3.14;70.08;98661.50;4917590;28;20275;-75
2023/01/24 01:00:09;;;;;;;17.35;7.75;;;;;;;3.22;70.03;98664.06;4946552;28;20296;-75
2023/01/24 01:02:34;;;;;;;16.73;7.68;;;;;;;3.09;70.76;98661.97;4922146;28;20611;-76
2023/01/24 01:05:00;;;;;;;18.95;8.35;;;;;;;3.04;70.52;98664.22;4932556;28;20184;-75
2023/01/24 01:07:25;;;;;;;19.08;7.85;;;;;;;3.12;71.09;98669.38;4912238;28;20203;-75
2023/01/24 01:09:51;;;;;;;16.63;8.15;;;;;;;3.03;70.51;98674.69;4928806;28;20203;-75
2023/01/24 01:12:16;;;;;;;18.05;7.75;;;;;;;2.79;71.46;98664.19;4946395;28;20215;-76
2023/01/24 01:14:41;;;;;;;16.33;8.38;;;;;;;2.92;70.94;98668.06;4936012;28;20200;-76
2023/01/24 01:17:07;;;;;;;18.38;8.48;;;;;;;2.98;71.40;98673.41;4934575;28;20165;-76
2023/01/24 01:19:32;;;;;;;16.45;7.78;;;;;;;3.32;69.54;98679.38;4925282;28;20793;-76
2023/01/24 01:21:57;;;;;;;17.83;7.60;;;;;;;3.36;70.14;98678.09;4926840;28;20275;-75
2023/01/24 01:24:23;;;;;;;17.70;8.65;;;;;;;3.41;69.49;98678.44;4928479;28;20596;-76
2023/01/24 01:26:48;;;;;;;17.65;9.27;;;;;;;3.07;70.78;98681.94;4915573;28;20210;-76
2023/01/24 01:29:13;;;;;;;14.30;7.85;;;;;;;3.30;69.63;98668.44;4924218;28;20319;-76
2023/01/24 01:31:39;;;;;;;20.08;9.85;;;;;;;3.04;70.85;98666.81;4915362;28;20189;-76
2023/01/24 01:34:04;;;;;;;19.33;8.73;;;;;;;3.08;70.74;98668.09;4916313;28;20685;-75
2023/01/24 01:36:29;;;;;;;18.00;8.38;;;;;;;3.34;70.22;98667.13;4943097;28;20444;-76
2023/01/24 01:38:54;;;;;;;18.17;8.27;;;;;;;3.22;69.97;98674.38;4938095;28;20249;-75
2023/01/24 01:41:20;;;;;;;15.77;7.72;;;;;;;3.34;70.07;98685.97;4939870;28;20298;-77
2023/01/24 01:46:42;;;;;;;18.58;8.93;;;;;;;3.30;69.83;98689.03;4929476;28;20199;-76
2023/01/24 01:49:16;;;;;;;17.15;8.90;;;;;;;3.29;70.25;98690.81;4926824;28;20260;-75
2023/01/24 01:51:45;;;;;;;21.13;9.48;;;;;;;3.35;69.88;98692.72;4941950;28;20219;-75
2023/01/24 01:54:32;;;;;;;17.80;8.52;;;;;;;3.36;69.76;98693.53;4927344;28;20186;-75
2023/01/24 01:57:04;;;;;;;20.35;9.15;;;;;;;3.15;70.53;98687.09;4937383;28;20719;-76
2023/01/24 01:59:41;;;;;;;17.90;8.73;;;;;;;3.26;70.33;98692.91;4921353;28;20219;-76
2023/01/24 02:02:07;;;;;;;21.38;9.35;;;;;;;2.91;71.15;98684.47;4938317;28;20623;-75
2023/01/24 02:04:35;;;;;;;18.33;8.73;;;;;;;3.03;71.20;98693.47;4936185;28;20195;-75
2023/01/24 02:07:20;;;;;;;16.25;8.63;;;;;;;3.26;70.46;98685.19;4955863;28;20241;-75
2023/01/24 02:09:49;;;;;;;17.23;8.55;;;;;;;3.22;69.88;98684.66;4934136;28;20272;-76
2023/01/24 02:12:19;;;;;;;18.50;8.85;;;;;;;3.24;70.53;98687.09;4918478;28;20217;-75
2023/01/24 02:17:30;;;;;;;14.60;7.63;;;;;;;3.16;69.82;98695.63;4929857;28;20254;-77
2023/01/24 02:20:22;;;;;;;14.80;8.27;;;;;;;3.63;68.36;98705.28;4928049;28;20625;-76
2023/01/24 02:23:00;;;;;;;17.77;7.95;;;;;;;3.42;69.29;98705.75;4925066;28;20578;-74
2023/01/24 02:25:44;;;;;;;17.02;8.70;;;;;;;3.41;69.18;98700.78;4943100;28;20420;-76
2023/01/24 02:28:10;;;;;;;18.80;8.98;;;;;;;3.03;71.10;98705.56;4911306;28;20156;-75
2023/01/24 02:30:36;;;;;;;16.58;8.30;;;;;;;3.34;69.15;98710.91;4943186;28;20267;-74
2023/01/24 02:33:18;;;;;;;18.63;7.72;;;;;;;3.36;69.21;98707.22;4943513;28;20314;-75
2023/01/24 02:35:44;;;;;;;15.77;7.07;;;;;;;3.24;70.00;98715.41;4926785;28;20393;-76
2023/01/24 02:38:22;;;;;;;16.10;8.43;;;;;;;3.41;69.74;98719.63;4900071;28;20281;-75
2023/01/24 02:40:53;;;;;;;17.30;7.82;;;;;;;3.20;69.94;98727.78;4925237;28;20216;-74
2023/01/24 02:43:20;;;;;;;18.75;9.02;;;;;;;3.28;69.33;98730.38;4926366;28;20307;-74
2023/01/24 02:45:46;;;;;;;14.02;7.75;;;;;;;2.95;71.01;98726.94;4942888;28;20331;-75
2023/01/24 02:48:11;;;;;;;19.17;10.25;;;;;;;2.77;71.42;98730.41;4945854;28;20335;-76
2023/01/24 02:53:30;;;;;;;19.52;9.75;;;;;;;2.81;71.51;98724.00;4926508;28;20180;-75
2023/01/24 02:58:49;;;;;;;19.00;8.15;;;;;;;3.34;69.63;98734.06;4937238;28;20578;-76
2023/01/24 03:01:25;;;;;;;16.52;9.27;;;;;;;3.50;68.82;98734.09;4939953;28;20207;-75
2023/01/24 03:03:51;;;;;;;18.35;8.82;;;;;;;3.32;69.44;98741.94;4924317;28;20333;-75
2023/01/24 03:06:17;;;;;;;16.48;7.25;;;;;;;3.18;69.75;98735.66;4941989;28;20187;-75
2023/01/24 03:08:43;;;;;;;15.25;7.53;;;;;;;3.44;69.06;98739.88;4913911;28;20208;-76
2023/01/24 03:11:09;;;;;;;17.77;8.05;;;;;;;3.23;70.14;98736.97;4934313;28;20368;-76
2023/01/24 03:35:32;;;;;;;15.90;7.82;;;;;;;3.24;69.51;98723.13;4930874;28;20084;-75
2023/01/24 03:40:42;;;;;;;15.48;8.15;;;;;;;2.94;71.06;98727.88;4945936;28;20199;-75
2023/01/24 03:43:07;;;;;;;19.98;9.05;;;;;;;3.07;70.50;98719.69;4916475;28;20648;-75
2023/01/24 03:45:37;;;;;;;18.83;8.63;;;;;;;3.25;70.29;98722.97;4934054;28;20204;-76
2023/01/24 03:48:14;;;;;;;17.90;8.63;;;;;;;3.40;69.36;98728.28;4943702;28;20212;-75
2023/01/24 03:53:29;;;;;;;20.75;8.77;;;;;;;3.43;68.83;98737.47;4931858;28;20276;-75
2023/01/24 03:56:00;;;;;;;18.85;9.23;;;;;;;3.22;70.40;98727.63;4943800;28;20244;-74
2023/01/24 03:58:27;;;;;;;19.40;8.55;;;;;;;3.12;70.07;98726.00;4931122;28;20654;-75
2023/01/24 04:00:53;;;;;;;18.20;8.02;;;;;;;3.10;70.13;98721.97;4945734;28;20686;-75
2023/01/24 04:03:19;;;;;;;18.73;8.73;;;;;;;3.28;70.15;98720.06;4930249;28;20177;-76
2023/01/24 04:05:46;;;;;;;19.50;9.10;;;;;;;3.27;69.84;98715.09;4929419;28;20259;-75
2023/01/24 04:08:12;;;;;;;17.52;7.82;;;;;;;3.19;70.04;98721.84;4946474;28;20201;-76
2023/01/24 04:10:37;;;;;;;21.77;8.95;;;;;;;3.48;68.67;98714.59;4932103;28;20638;-76
2023/01/24 04:13:02;;;;;;;16.55;7.82;;;;;;;3.26;69.17;98721.22;4940067;28;20377;-75
2023/01/24 04:15:30;;;;;;;20.15;8.52;;;;;;;3.44;69.22;98723.63;4945807;28;20214;-75
2023/01/24 04:17:56;;;;;;;17.20;8.50;;;;;;;3.41;69.02;98723.94;4916460;28;20208;-75
2023/01/24 04:20:22;;;;;;;19.13;8.82;;;;;;;3.21;69.80;98723.47;4921505;28;20240;-75
2023/01/24 04:22:47;;;;;;;18.75;8.18;;;;;;;3.29;69.66;98726.03;4929791;28;20749;-75
2023/01/24 04:25:13;;;;;;;16.85;8.85;;;;;;;3.37;69.24;98718.31;4920513;28;20631;-76
2023/01/24 04:27:38;;;;;;;19.48;9.07;;;;;;;3.13;70.32;98714.72;4910460;28;20208;-77
2023/01/24 04:30:06;;;;;;;17.55;8.73;;;;;;;3.12;70.46;98720.03;4927038;28;20462;-75
2023/01/24 04:32:31;;;;;;;17.98;10.00;;;;;;;3.32;69.53;98721.34;4938553;28;20395;-76
2023/01/24 04:34:57;;;;;;;18.13;8.75;;;;;;;2.99;70.06;98721.31;4926246;28;20356;-75
2023/01/24 04:37:22;;;;;;;19.42;8.48;;;;;;;2.84;70.92;98715.16;4929517;28;20749;-75
2023/01/24 04:39:47;;;;;;;15.88;8.82;;;;;;;3.26;70.04;98721.22;4943481;28;20192;-75
2023/01/24 04:42:13;;;;;;;19.15;9.38;;;;;;;3.13;69.92;98716.50;4933249;28;20197;-75
2023/01/24 04:44:38;;;;;;;22.50;8.73;;;;;;;2.99;70.04;98705.88;4939186;28;20169;-76
2023/01/24 04:47:04;;;;;;;17.92;8.90;;;;;;;3.11;69.95;98714.09;4922116;28;20211;-75
2023/01/24 04:49:29;;;;;;;18.92;9.02;;;;;;;3.25;69.78;98710.09;4930556;28;20308;-77
2023/01/24 04:51:54;;;;;;;19.17;7.68;;;;;;;3.11;69.88;98716.66;4959669;28;20687;-75
2023/01/24 04:54:20;;;;;;;20.20;10.07;;;;;;;3.10;70.09;98716.81;4938665;28;20276;-75
2023/01/24 04:56:45;;;;;;;20.40;9.40;;;;;;;2.95;70.36;98720.00;4942654;28;20744;-75
2023/01/24 04:59:12;;;;;;;19.27;8.27;;;;;;;3.06;70.15;98723.25;4940309;28;20278;-76
2023/01/24 05:01:37;;;;;;;21.98;9.70;;;;;;;3.09;70.39;98720.38;4933954;28;20187;-75
2023/01/24 05:04:03;;;;;;;18.92;8.27;;;;;;;3.36;69.36;98729.59;4927755;28;20428;-76
2023/01/24 05:06:30;;;;;;;20.25;10.15;;;;;;;3.20;69.83;98732.94;4937989;28;20247;-76
2023/01/24 05:08:55;;;;;;;19.90;9.23;;;;;;;3.17;69.63;98734.06;4918540;28;20392;-76
2023/01/24 05:11:21;;;;;;;17.58;8.75;;;;;;;3.25;69.69;98735.84;4945402;28;20614;-75
2023/01/24 05:13:48;;;;;;;22.38;9.38;;;;;;;3.27;69.19;98733.91;4935399;28;20204;-76
2023/01/24 05:16:13;;;;;;;17.75;8.23;;;;;;;3.09;69.37;98734.03;4926746;28;20576;-75
2023/01/24 05:18:39;;;;;;;20.27;9.15;;;;;;;3.32;68.73;98736.00;4924559;28;20276;-76
2023/01/24 05:21:08;;;;;;;19.38;9.07;;;;;;;3.55;68.68;98746.50;4942119;28;20200;-76
2023/01/24 05:23:34;;;;;;;19.15;9.65;;;;;;;3.26;69.36;98739.22;4927220;28;20228;-76
2023/01/24 05:26:03;;;;;;;16.50;8.32;;;;;;;3.29;69.63;98746.63;4925637;28;20583;-75
2023/01/24 05:28:29;;;;;;;18.02;8.60;;;;;;;3.32;68.94;98751.44;4912709;28;20204;-76
2023/01/24 05:31:02;;;;;;;19.48;8.23;;;;;;;3.23;69.55;98750.63;4939829;28;20207;-75
2023/01/24 05:33:27;;;;;;;19.17;8.82;;;;;;;3.16;69.65;98747.09;4921073;28;20200;-76
2023/01/24 05:36:04;;;;;;;19.05;8.85;;;;;;;3.09;70.46;98757.19;4926012;28;20209;-76
2023/01/24 05:38:30;;;;;;;17.13;8.65;;;;;;;2.70;71.15;98757.69;4943975;28;20203;-75
2023/01/24 05:41:06;;;;;;;17.38;8.43;;;;;;;3.00;70.68;98755.56;4943351;28;20199;-75
2023/01/24 05:43:32;;;;;;;50.53;22.92;;;;;;;2.94;70.48;98744.13;4945155;28;20274;-76
2023/01/24 05:46:19;;;;;;;21.23;10.38;;;;;;;3.10;70.13;98758.00;4912523;28;20266;-76
2023/01/24 05:48:45;;;;;;;21.88;10.07;;;;;;;3.12;69.92;98762.03;4927239;28;20208;-76
2023/01/24 05:51:12;;;;;;;17.73;8.98;;;;;;;3.07;70.40;98753.97;4941999;28;20639;-75
2023/01/24 05:53:39;;;;;;;19.88;8.25;;;;;;;3.22;69.78;98755.94;4937103;28;20162;-75
2023/01/24 05:56:07;;;;;;;18.27;9.73;;;;;;;3.24;69.89;98759.16;4922093;28;20199;-74
2023/01/24 05:58:36;;;;;;;24.30;11.02;;;;;;;3.29;69.65;98762.06;4928825;28;20713;-76
2023/01/24 06:01:06;;;;;;;21.60;10.27;;;;;;;3.40;69.48;98769.50;4923097;28;20107;-76
2023/01/24 06:03:32;;;;;;;18.35;8.82;;;;;;;3.33;69.08;98779.63;4922015;28;20705;-77
2023/01/24 06:05:57;;;;;;;18.27;9.93;;;;;;;3.28;69.10;98787.00;4933399;28;20279;-75
2023/01/24 06:08:22;;;;;;;20.00;10.05;;;;;;;3.29;69.24;98787.78;4945955;28;20196;-75
2023/01/24 06:10:49;;;;;;;19.08;8.38;;;;;;;3.13;69.99;98799.66;4945453;28;20200;-75
2023/01/24 06:13:14;;;;;;;15.00;8.35;;;;;;;3.10;69.97;98799.16;4942900;28;20274;-75
2023/01/24 06:15:40;;;;;;;21.08;9.25;;;;;;;3.19;69.99;98804.19;4931031;28;20246;-75
2023/01/24 06:18:07;;;;;;;19.65;9.10;;;;;;;3.23;69.42;98793.59;4908157;28;20298;-76
2023/01/24 06:20:32;;;;;;;18.52;8.15;;;;;;;3.44;69.15;98795.72;4926917;28;20204;-77
2023/01/24 06:23:10;;;;;;;22.50;9.65;;;;;;;3.55;68.78;98798.81;4922992;28;20178;-76
2023/01/24 06:25:35;;;;;;;18.90;10.00;;;;;;;3.38;69.11;98803.13;4931710;28;20787;-76
2023/01/24 06:28:01;;;;;;;24.10;11.25;;;;;;;3.45;68.96;98807.66;4932706;28;20289;-75
2023/01/24 06:30:27;;;;;;;21.65;9.90;;;;;;;2.85;70.64;98811.16;4950021;28;20275;-75
2023/01/24 06:33:20;;;;;;;23.15;10.10;;;;;;;3.12;70.23;98808.34;4923434;28;20309;-75
2023/01/24 06:35:54;;;;;;;21.27;10.25;;;;;;;3.21;69.58;98810.97;4936873;28;20674;-75
2023/01/24 06:38:24;;;;;;;21.27;11.25;;;;;;;3.06;70.36;98814.13;4940722;28;20173;-77
2023/01/24 06:40:54;;;;;;;19.15;10.23;;;;;;;2.93;70.59;98811.16;4916810;28;20293;-75
2023/01/24 06:43:19;;;;;;;24.52;10.48;;;;;;;3.12;70.63;98818.66;4893662;28;20251;-75
2023/01/24 06:45:44;;;;;;;20.08;8.85;;;;;;;3.19;70.19;98819.63;4927201;28;20384;-75
2023/01/24 06:48:10;;;;;;;21.85;9.75;;;;;;;3.23;69.40;98824.47;4936111;28;20204;-75
2023/01/24 06:50:35;;;;;;;22.08;9.88;;;;;;;3.26;69.67;98827.53;4936779;28;20548;-76
2023/01/24 06:53:01;;;;;;;22.30;10.25;;;;;;;3.45;68.95;98823.91;4926483;28;20468;-75
2023/01/24 06:55:26;;;;;;;18.40;8.48;;;;;;;3.34;68.42;98831.91;4941543;28;20693;-75
2023/01/24 06:57:58;;;;;;;19.27;9.15;;;;;;;3.10;69.55;98822.31;4943755;28;20641;-75
2023/01/24 07:00:24;;;;;;;18.98;9.38;;;;;;;2.92;70.60;98823.22;4938634;28;20274;-75
2023/01/24 07:03:00;;;;;;;16.65;8.70;;;;;;;3.06;70.71;98826.19;4921366;28;20299;-76
2023/01/24 07:05:26;;;;;;;19.13;8.43;;;;;;;2.96;70.50;98818.56;4941889;28;20192;-75
2023/01/24 07:07:52;;;;;;;19.08;10.48;;;;;;;2.94;70.75;98825.66;4942640;28;20246;-75
2023/01/24 07:10:17;;;;;;;20.73;9.48;;;;;;;2.85;70.93;98837.66;4942749;28;20270;-75
2023/01/24 07:12:43;;;;;;;19.40;9.52;;;;;;;3.00;70.41;98825.84;4938471;28;20339;-75
2023/01/24 07:15:08;;;;;;;19.60;8.43;;;;;;;2.93;70.50;98830.00;4936018;28;20201;-75
2023/01/24 07:17:34;;;;;;;26.73;10.63;;;;;;;3.04;70.43;98826.34;4904889;28;20590;-75
2023/01/24 07:20:00;;;;;;;18.30;9.68;;;;;;;3.01;70.59;98836.94;4943302;28;20720;-76
2023/01/24 07:22:25;;;;;;;17.35;8.45;;;;;;;3.08;70.82;98842.28;4945989;28;20397;-75
2023/01/24 07:24:51;;;;;;;16.63;8.02;;;;;;;3.08;70.46;98832.78;4914416;28;20698;-76
2023/01/24 07:27:17;;;;;;;16.98;8.27;;;;;;;2.87;71.16;98843.47;4939745;28;20146;-76
2023/01/24 07:29:42;;;;;;;19.45;8.18;;;;;;;2.84;71.83;98840.41;4938706;28;20196;-75
2023/01/24 07:32:09;;;;;;;22.48;9.70;;;;;;;3.34;70.07;98842.19;4938985;28;20574;-76
2023/01/24 07:34:34;;;;;;;18.08;9.23;;;;;;;3.22;69.78;98848.59;4928505;28;20026;-76
2023/01/24 07:37:00;;;;;;;18.27;8.27;;;;;;;3.43;69.46;98845.59;4911692;28;20111;-76
2023/01/24 07:39:28;;;;;;;19.10;9.10;;;;;;;3.23;70.35;98847.66;4938976;28;20334;-76
2023/01/24 07:41:53;;;;;;;18.33;9.68;;;;;;;2.84;71.11;98850.69;4926630;28;20193;-75
2023/01/24 07:44:19;;;;;;;23.60;10.50;;;;;;;3.00;70.68;98851.56;4943776;28;20253;-75
2023/01/24 07:46:44;;;;;;;20.02;10.18;;;;;;;3.11;70.58;98858.22;4942566;28;20305;-77
2023/01/24 07:49:09;;;;;;;20.70;8.77;;;;;;;3.07;70.55;98856.91;4943523;28;20180;-75
2023/01/24 07:51:35;;;;;;;21.83;9.45;;;;;;;3.29;70.31;98854.72;4945880;28;20192;-75
2023/01/24 07:54:00;;;;;;;18.95;9.60;;;;;;;2.91;71.08;98860.19;4907673;28;20185;-74
2023/01/24 07:56:25;;;;;;;20.00;9.27;;;;;;;2.96;70.75;98857.19;4943453;28;20192;-75
2023/01/24 07:58:51;;;;;;;20.63;9.10;;;;;;;2.99;70.85;98857.66;4931704;28;20358;-75
2023/01/24 08:01:17;;;;;;;17.75;9.27;;;;;;;3.00;70.51;98868.78;4925340;28;20314;-75
2023/01/24 08:03:43;;;;;;;17.95;9.07;;;;;;;3.29;70.27;98860.72;4907841;28;20235;-75
2023/01/24 08:06:08;;;;;;;21.33;9.07;;;;;;;3.27;69.34;98862.59;4908833;28;20673;-76
2023/01/24 08:08:33;;;;;;;20.27;9.07;;;;;;;3.27;70.14;98861.81;4940413;28;20231;-75
2023/01/24 08:10:59;;;;;;;18.30;8.35;;;;;;;3.17;70.22;98867.91;4944893;28;20286;-74
2023/01/24 08:13:24;;;;;;;20.48;9.50;;;;;;;3.27;69.98;98879.81;4942705;28;20532;-74
2023/01/24 08:15:49;;;;;;;21.08;8.25;;;;;;;3.20;70.32;98871.91;4930835;28;20083;-75
2023/01/24 08:18:15;;;;;;;22.23;8.77;;;;;;;3.17;70.60;98875.63;4946809;28;20218;-75
2023/01/24 08:20:40;;;;;;;19.83;9.02;;;;;;;3.10;70.59;98879.78;4926402;28;20230;-75
2023/01/24 08:23:05;;;;;;;18.73;9.10;;;;;;;3.33;69.84;98890.31;4935593;28;20325;-75
2023/01/24 08:25:31;;;;;;;19.95;9.23;;;;;;;3.44;69.11;98878.91;4946927;28;20199;-76
2023/01/24 08:27:57;;;;;;;18.80;9.20;;;;;;;3.49;69.47;98889.56;4946201;28;20253;-76
2023/01/24 08:30:23;;;;;;;17.73;9.05;;;;;;;3.21;70.56;98893.34;4945823;28;20460;-75
2023/01/24 08:32:48;;;;;;;22.05;9.27;;;;;;;3.30;69.94;98892.41;4944882;28;20291;-76
2023/01/24 08:35:15;;;;;;;17.55;8.88;;;;;;;3.01;70.12;98896.13;4946743;28;20682;-76
2023/01/24 08:37:40;;;;;;;18.23;8.85;;;;;;;3.24;70.45;98900.72;4930123;28;20290;-75
2023/01/24 08:40:06;;;;;;;19.83;8.93;;;;;;;3.18;70.70;98897.81;4913963;28;20207;-75
2023/01/24 08:42:32;;;;;;;13.50;7.78;;;;;;;3.30;70.42;98897.53;4945838;28;20224;-75
2023/01/24 08:44:57;;;;;;;18.88;9.20;;;;;;;3.25;70.39;98902.34;4946392;28;20209;-75
2023/01/24 08:47:23;;;;;;;16.80;8.00;;;;;;;3.07;70.65;98894.69;4946489;28;20288;-75
2023/01/24 08:49:48;;;;;;;17.63;8.50;;;;;;;3.36;70.22;98902.09;4946551;28;20684;-75
2023/01/24 08:52:13;;;;;;;20.45;9.20;;;;;;;3.51;69.18;98895.38;4947856;28;20183;-75
2023/01/24 08:54:39;;;;;;;18.10;7.82;;;;;;;3.58;69.19;98905.03;4947209;28;20311;-76
2023/01/24 08:57:06;;;;;;;20.40;10.13;;;;;;;3.49;69.22;98901.63;4946402;28;20192;-75
2023/01/24 08:59:32;;;;;;;19.35;8.85;;;;;;;3.51;69.51;98900.53;4946221;28;20231;-76
2023/01/24 09:01:57;;;;;;;18.88;8.80;;;;;;;3.61;68.92;98907.31;4942479;28;20724;-76
2023/01/24 09:04:22;;;;;;;18.85;8.55;;;;;;;3.31;69.91;98909.47;4913191;28;20735;-75
2023/01/24 09:06:51;;;;;;;18.05;8.60;;;;;;;3.33;70.48;98904.97;4945509;28;20682;-75
2023/01/24 09:09:16;;;;;;;19.48;8.70;;;;;;;3.26;70.52;98911.69;4947679;28;20493;-76
2023/01/24 09:11:41;;;;;;;17.27;8.60;;;;;;;3.38;71.07;98916.41;4929351;28;20165;-76
2023/01/24 09:14:07;;;;;;;18.42;9.63;;;;;;;3.35;70.54;98908.97;4928903;28;20280;-77
2023/01/24 09:16:32;;;;;;;19.17;8.98;;;;;;;3.66;69.27;98907.66;4930209;28;20195;-76
2023/01/24 09:18:57;;;;;;;20.85;9.00;;;;;;;3.61;69.41;98915.84;4912606;28;20160;-76
2023/01/24 09:21:23;;;;;;;19.95;8.43;;;;;;;3.61;68.95;98910.69;4944756;28;20219;-75
2023/01/24 09:23:48;;;;;;;18.35;8.82;;;;;;;3.58;69.33;98916.13;4947176;28;20199;-75
2023/01/24 09:26:13;;;;;;;22.55;9.55;;;;;;;3.40;70.00;98918.03;4944540;28;20266;-78
2023/01/24 09:28:42;;;;;;;19.23;8.98;;;;;;;3.60;70.27;98909.09;4946171;28;20215;-78
2023/01/24 09:31:08;;;;;;;18.73;8.50;;;;;;;3.22;70.79;98910.38;4945658;28;20188;-77
2023/01/24 09:33:33;;;;;;;19.90;9.38;;;;;;;3.49;70.15;98915.31;4913674;28;20330;-77
2023/01/24 09:36:02;;;;;;;20.05;9.25;;;;;;;3.64;70.16;98925.03;4945673;28;20750;-76
2023/01/24 09:38:29;;;;;;;21.65;9.23;;;;;;;3.48;71.17;98923.19;4929048;28;20674;-75
2023/01/24 09:41:08;;;;;;;18.25;9.85;;;;;;;3.47;70.79;98917.25;4944714;28;20216;-75
2023/01/24 09:43:46;;;;;;;18.95;8.88;;;;;;;3.67;69.53;98924.72;4899545;28;20083;-76
2023/01/24 09:46:25;;;;;;;19.65;9.38;;;;;;;3.66;69.64;98918.75;4927274;28;20220;-75
2023/01/24 09:49:29;;;;;;;19.08;8.40;;;;;;;3.48;70.77;98926.59;4929375;28;20183;-75
2023/01/24 09:51:54;;;;;;;18.58;9.90;;;;;;;3.26;70.92;98917.66;4942444;28;20165;-75
2023/01/24 09:54:31;;;;;;;21.42;10.27;;;;;;;3.43;71.54;98923.66;4946029;28;20275;-74
2023/01/24 09:56:56;;;;;;;20.80;9.43;;;;;;;3.41;70.75;98935.91;4912405;28;20307;-75
2023/01/24 09:59:31;;;;;;;20.20;9.73;;;;;;;3.41;71.36;98925.59;4945395;28;20506;-75
2023/01/24 10:01:56;;;;;;;20.08;9.82;;;;;;;3.33;71.23;98923.78;4941901;28;20451;-75
2023/01/24 10:04:32;;;;;;;22.13;9.23;;;;;;;3.54;70.88;98928.53;4931336;28;20208;-74
2023/01/24 10:07:12;;;;;;;23.27;9.88;;;;;;;3.67;69.91;98920.38;4945159;28;20289;-75
2023/01/24 10:10:25;;;;;;;21.23;9.25;;;;;;;3.92;69.79;98923.81;4909255;28;20196;-76
2023/01/24 10:13:15;;;;;;;20.30;9.07;;;;;;;3.90;70.17;98924.94;4902041;28;20217;-76
2023/01/24 10:15:47;;;;;;;24.52;10.63;;;;;;;3.73;70.50;98921.50;4921783;28;20469;-74
2023/01/24 10:18:32;;;;;;;19.80;10.05;;;;;;;3.46;70.72;98927.69;4944819;28;20705;-75
2023/01/24 10:21:27;;;;;;;;;;;;;;;3.48;70.92;98931.75;4921786;28;20282;-75
2023/01/24 10:23:56;;;;;;;21.27;10.73;;;;;;;3.40;70.98;98918.03;4934377;28;20585;-74
2023/01/24 10:26:38;;;;;;;22.83;9.73;;;;;;;3.51;71.09;98920.31;4944335;28;20614;-75
2023/01/24 10:29:17;;;;;;;23.25;10.55;;;;;;;3.79;69.98;98915.75;4944754;28;20223;-76
2023/01/24 10:32:00;;;;;;;22.98;11.02;;;;;;;3.84;70.41;98920.41;4925981;28;20215;-76
2023/01/24 10:34:31;;;;;;;24.60;11.52;;;;;;;3.87;69.65;98920.91;4928362;28;20156;-75
2023/01/24 10:37:15;;;;;;;24.65;10.75;;;;;;;3.81;69.72;98921.53;4927939;28;20211;-75
2023/01/24 10:39:40;;;;;;;22.85;10.90;;;;;;;3.45;70.55;98920.94;4918742;28;20263;-74
2023/01/24 10:42:22;;;;;;;21.88;9.52;;;;;;;3.59;70.88;98917.75;4940984;28;20180;-76
2023/01/24 10:44:48;;;;;;;21.75;9.75;;;;;;;3.19;72.16;98917.44;4939880;28;20605;-77
2023/01/24 10:47:48;;;;;;;22.92;9.70;;;;;;;3.55;71.47;98921.63;4927800;28;20286;-76
2023/01/24 10:50:18;;;;;;;22.63;10.82;;;;;;;3.52;71.19;98915.00;4943103;28;20670;-74
2023/01/24 10:52:46;;;;;;;19.05;8.50;;;;;;;3.44;71.36;98922.69;4927500;28;20589;-76
2023/01/24 10:55:31;;;;;;;24.10;9.63;;;;;;;3.47;71.96;98931.88;4911732;28;20366;-75
2023/01/24 10:57:57;;;;;;;;;;;;;;;3.58;71.19;98935.94;4944191;28;20696;-76
2023/01/24 11:00:30;;;;;;;19.25;9.07;;;;;;;3.47;70.99;98935.25;4908089;28;20169;-75
2023/01/24 11:02:58;;;;;;;24.52;11.05;;;;;;;3.74;70.17;98931.66;4925620;28;20088;-75
2023/01/24 11:05:25;;;;;;;22.75;9.93;;;;;;;3.34;71.95;98930.56;4943431;28;20250;-75
2023/01/24 11:07:53;;;;;;;24.02;10.68;;;;;;;3.62;71.16;98929.53;4944098;28;20290;-75
2023/01/24 11:10:28;;;;;;;20.58;9.13;;;;;;;3.88;69.96;98926.88;4943502;28;20629;-77
2023/01/24 11:13:40;;;;;;;21.42;10.50;;;;;;;3.74;70.67;98926.50;4944505;28;20219;-76
2023/01/24 11:16:07;;;;;;;18.75;9.20;;;;;;;3.81;70.15;98929.25;4941065;28;20731;-77
2023/01/24 11:18:34;;;;;;;23.05;9.98;;;;;;;3.86;69.57;98924.44;4944283;28;20227;-77
2023/01/24 11:21:10;;;;;;;18.88;9.43;;;;;;;4.13;69.46;98930.31;4928315;28;20333;-77
2023/01/24 11:23:36;;;;;;;21.48;9.65;;;;;;;4.04;69.35;98918.34;4927014;28;20191;-78
2023/01/24 11:26:04;;;;;;;23.33;11.25;;;;;;;4.11;69.36;98921.91;4927895;28;20280;-77
2023/01/24 11:28:32;;;;;;;20.63;10.60;;;;;;;3.97;69.67;98925.13;4928872;28;20203;-78
2023/01/24 11:31:06;;;;;;;17.88;8.88;;;;;;;3.90;69.42;98925.72;4934181;28;20193;-78
2023/01/24 11:33:55;;;;;;;18.65;9.23;;;;;;;3.88;70.19;98925.09;4936893;28;20635;-77
2023/01/24 11:36:55;;;;;;;21.92;10.25;;;;;;;4.08;69.21;98917.09;4945789;28;20199;-77
2023/01/24 11:39:39;;;;;;;18.08;8.52;;;;;;;4.02;69.75;98918.50;4910304;28;20207;-77
2023/01/24 11:42:13;;;;;;;17.38;8.38;;;;;;;4.10;68.68;98921.09;4941092;28;20187;-77
2023/01/24 11:45:15;;;;;;;19.63;9.68;;;;;;;4.02;69.50;98915.13;4922516;28;20182;-77
2023/01/24 11:48:12;;;;;;;21.33;9.02;;;;;;;3.79;70.50;98913.16;4944319;28;20650;-75
2023/01/24 11:51:09;;;;;;;20.75;8.90;;;;;;;3.94;70.11;98918.50;4935544;28;20257;-77
2023/01/24 11:53:38;;;;;;;22.15;9.38;;;;;;;4.03;69.44;98912.41;4954391;28;20583;-77
2023/01/24 11:56:51;;;;;;;20.65;9.25;;;;;;;4.02;69.39;98912.56;4943497;28;20195;-76
2023/01/24 11:59:34;;;;;;;19.73;9.05;;;;;;;4.19;68.99;98898.72;4886281;28;20289;-78
2023/01/24 12:02:37;;;;;;;19.15;9.07;;;;;;;4.29;69.06;98896.00;4941464;28;20568;-78
2023/01/24 12:05:22;;;;;;;18.10;8.32;;;;;;;4.21;68.34;98894.19;4938400;28;20259;-76
2023/01/24 12:08:09;;;;;;;21.15;9.50;;;;;;;3.78;70.13;98893.50;4930032;28;20426;-76
2023/01/24 12:10:48;;;;;;;19.00;8.85;;;;;;;3.91;69.62;98891.28;4937295;28;20196;-77
2023/01/24 12:13:26;;;;;;;18.60;8.38;;;;;;;3.90;69.93;98881.94;4931394;28;20102;-77
2023/01/24 12:16:19;;;;;;;17.38;8.20;;;;;;;3.89;69.92;98893.22;4947608;28;20169;-77
2023/01/24 12:19:04;;;;;;;19.83;8.57;;;;;;;3.44;71.31;98891.00;4947672;28;20659;-77
2023/01/24 12:21:29;;;;;;;20.10;10.00;;;;;;;3.47;71.40;98888.13;4924303;28;20270;-76
2023/01/24 12:24:01;;;;;;;19.13;8.30;;;;;;;3.64;71.22;98889.78;4949032;28;20192;-77